Time;durP1;ratioP1;P1;durP2;ratioP2;P2;SDS_P1;SDS_P2;PMS_P1;PMS_P2;Temp;Humidity;BMP_temperature;BMP_pressure;BME280_temperature;BME280_humidity;BME280_pressure;Samples;Min_cycle;Max_cycle;Signal;HPM_P1;HPM_P2
2023/12/05 00:00:08;;;;;;;14.57;9.35;;;;;;;;;;4975002;28;20046;-80
2023/12/05 00:02:39;;;;;;;18.57;10.17;;;;;;;;;;4994429;28;20038;-80
2023/12/05 00:05:05;;;;;;;20.98;11.70;;;;;;;;;;4977869;28;20086;-80
2023/12/05 00:07:31;;;;;;;7.85;5.93;;;;;;;;;;4994469;28;20106;-80
2023/12/05 00:09:58;;;;;;;13.35;9.27;;;;;;;;;;4980128;28;20035;-80
2023/12/05 00:12:24;;;;;;;13.77;9.57;;;;;;;;;;4967130;29;20027;-81
2023/12/05 00:14:50;;;;;;;21.55;10.90;;;;;;;;;;4989155;28;20039;-79
2023/12/05 00:17:16;;;;;;;20.52;9.93;;;;;;;;;;4981376;28;20126;-78
2023/12/05 00:19:42;;;;;;;30.92;15.05;;;;;;;;;;4970807;28;20126;-78
2023/12/05 00:22:08;;;;;;;6.45;5.57;;;;;;;;;;4973247;28;20114;-76
2023/12/05 00:24:34;;;;;;;15.77;10.15;;;;;;;;;;4975190;28;20038;-78
2023/12/05 00:27:00;;;;;;;14.35;9.50;;;;;;;;;;4955662;28;20054;-78
2023/12/05 00:29:26;;;;;;;23.38;12.85;;;;;;;;;;4975252;28;20565;-79
2023/12/05 00:31:52;;;;;;;25.27;11.68;;;;;;;;;;4975282;28;20517;-78
2023/12/05 00:34:18;;;;;;;21.55;10.82;;;;;;;;;;4958107;28;20133;-77
2023/12/05 00:36:44;;;;;;;31.67;14.60;;;;;;;;;;4975628;28;20038;-80
2023/12/05 00:39:10;;;;;;;13.20;9.52;;;;;;;;;;4967378;28;20042;-80
2023/12/05 00:41:36;;;;;;;6.85;5.07;;;;;;;;;;4992361;28;20066;-80
2023/12/05 00:44:03;;;;;;;16.77;7.10;;;;;;;;;;4992398;28;20077;-80
2023/12/05 00:46:28;;;;;;;22.58;12.05;;;;;;;;;;4976881;28;20054;-81
2023/12/05 00:48:54;;;;;;;26.05;13.02;;;;;;;;;;4972255;29;20106;-80
2023/12/05 00:51:20;;;;;;;9.25;7.57;;;;;;;;;;4990293;28;20069;-80
2023/12/05 00:53:47;;;;;;;17.20;9.80;;;;;;;;;;4966086;28;20015;-79
2023/12/05 00:56:14;;;;;;;21.65;11.93;;;;;;;;;;4986907;28;20042;-79
2023/12/05 00:58:40;;;;;;;17.95;7.85;;;;;;;;;;4982639;28;20146;-81
2023/12/05 01:01:07;;;;;;;11.43;7.47;;;;;;;;;;4979743;28;20137;-78
2023/12/05 01:03:33;;;;;;;16.58;8.52;;;;;;;;;;4968818;28;20035;-80
2023/12/05 01:05:59;;;;;;;22.98;11.65;;;;;;;;;;4952456;28;20076;-79
2023/12/05 01:08:25;;;;;;;22.20;11.02;;;;;;;;;;4984038;28;20046;-79
2023/12/05 01:10:51;;;;;;;14.30;6.88;;;;;;;;;;4981591;28;20045;-82
2023/12/05 01:13:17;;;;;;;7.63;6.90;;;;;;;;;;4991452;28;20054;-82
2023/12/05 01:15:43;;;;;;;22.30;8.55;;;;;;;;;;4975045;28;20046;-83
2023/12/05 01:18:10;;;;;;;18.90;9.90;;;;;;;;;;4973937;28;20054;-82
2023/12/05 01:20:36;;;;;;;13.20;8.35;;;;;;;;;;4997519;28;20065;-82
2023/12/05 01:23:02;;;;;;;15.50;9.13;;;;;;;;;;5154724;23;20082;-84
2023/12/05 01:25:28;;;;;;;22.17;10.52;;;;;;;;;;5258923;23;20047;-81
2023/12/05 01:27:54;;;;;;;8.30;7.50;;;;;;;;;;5016919;28;20038;-81
2023/12/05 01:30:20;;;;;;;20.63;12.13;;;;;;;;;;5006159;28;20034;-80
2023/12/05 01:32:46;;;;;;;17.50;9.32;;;;;;;;;;4991424;28;20101;-81
2023/12/05 01:35:12;;;;;;;18.00;10.68;;;;;;;;;;5002841;28;20039;-82
2023/12/05 01:37:38;;;;;;;16.85;9.25;;;;;;;;;;5012861;28;20106;-82
2023/12/05 01:40:05;;;;;;;14.98;10.13;;;;;;;;;;4981772;28;20043;-80
2023/12/05 01:42:36;;;;;;;12.77;6.95;;;;;;;;;;4998236;28;20062;-81
2023/12/05 01:45:06;;;;;;;19.10;10.38;;;;;;;;;;5003983;28;20079;-80
2023/12/05 01:47:33;;;;;;;6.50;5.28;;;;;;;;;;4995248;28;20061;-81
2023/12/05 01:49:59;;;;;;;18.10;10.60;;;;;;;;;;4997340;28;20042;-81
2023/12/05 01:52:25;;;;;;;12.65;9.07;;;;;;;;;;4989405;28;20129;-79
2023/12/05 01:54:51;;;;;;;20.92;11.40;;;;;;;;;;4998951;28;20049;-81
2023/12/05 01:57:17;;;;;;;22.15;11.82;;;;;;;;;;4994335;28;20046;-79
2023/12/05 01:59:43;;;;;;;12.40;9.63;;;;;;;;;;4995577;28;20033;-82
2023/12/05 02:02:09;;;;;;;13.15;6.63;;;;;;;;;;4985408;28;20111;-82
2023/12/05 02:04:35;;;;;;;17.33;9.48;;;;;;;;;;4979625;28;20035;-81
2023/12/05 02:07:01;;;;;;;12.45;8.93;;;;;;;;;;5008659;28;20062;-81
2023/12/05 02:09:28;;;;;;;8.60;7.82;;;;;;;;;;4976585;28;20027;-79
2023/12/05 02:11:54;;;;;;;19.38;12.43;;;;;;;;;;5002545;28;20053;-81
2023/12/05 02:14:19;;;;;;;26.08;10.77;;;;;;;;;;4999392;28;20468;-80
2023/12/05 02:16:49;;;;;;;14.85;10.55;;;;;;;;;;4981310;28;20128;-79
2023/12/05 02:19:29;;;;;;;23.20;12.43;;;;;;;;;;4993086;28;20035;-80
2023/12/05 02:21:59;;;;;;;13.02;9.00;;;;;;;;;;4992944;28;20051;-79
2023/12/05 02:24:48;;;;;;;9.85;5.80;;;;;;;;;;4972636;28;20058;-77
2023/12/05 02:27:34;;;;;;;12.75;8.35;;;;;;;;;;4940554;28;20125;-80
2023/12/05 02:30:01;;;;;;;12.52;8.02;;;;;;;;;;4976790;28;20049;-78
2023/12/05 02:32:27;;;;;;;9.75;7.63;;;;;;;;;;4978160;28;20051;-80
2023/12/05 02:34:53;;;;;;;9.68;6.15;;;;;;;;;;4983855;28;20069;-77
2023/12/05 02:37:27;;;;;;;14.23;9.00;;;;;;;;;;4989310;28;20054;-81
2023/12/05 02:39:56;;;;;;;9.13;7.82;;;;;;;;;;4995418;28;20039;-81
2023/12/05 02:42:23;;;;;;;18.05;10.13;;;;;;;;;;4975116;28;20027;-81
2023/12/05 02:44:51;;;;;;;23.80;12.27;;;;;;;;;;4993165;28;20055;-82
2023/12/05 02:47:17;;;;;;;19.73;11.63;;;;;;;;;;4977308;28;20159;-82
2023/12/05 02:49:43;;;;;;;10.80;8.82;;;;;;;;;;4975946;28;20050;-80
2023/12/05 02:52:10;;;;;;;18.45;12.75;;;;;;;;;;4993834;28;20046;-80
2023/12/05 02:54:36;;;;;;;24.40;13.90;;;;;;;;;;4978629;28;20039;-82
2023/12/05 02:57:02;;;;;;;9.95;8.07;;;;;;;;;;4978046;28;20509;-81
2023/12/05 02:59:28;;;;;;;21.85;12.10;;;;;;;;;;4972082;28;20054;-79
2023/12/05 03:01:53;;;;;;;9.73;8.15;;;;;;;;;;4957775;28;20043;-79
2023/12/05 03:04:19;;;;;;;11.02;8.52;;;;;;;;;;4958777;28;20043;-79
2023/12/05 03:06:46;;;;;;;11.90;9.02;;;;;;;;;;4962518;28;20043;-78
2023/12/05 03:09:12;;;;;;;21.95;10.25;;;;;;;;;;4982686;28;20058;-79
2023/12/05 03:11:37;;;;;;;8.35;7.18;;;;;;;;;;4985213;28;20034;-81
2023/12/05 03:14:04;;;;;;;22.17;12.35;;;;;;;;;;4966616;28;20429;-80
2023/12/05 03:16:30;;;;;;;19.45;10.43;;;;;;;;;;4967699;28;20053;-79
2023/12/05 03:18:56;;;;;;;13.48;9.07;;;;;;;;;;4992325;28;20050;-81
2023/12/05 03:21:22;;;;;;;12.73;9.60;;;;;;;;;;4994583;28;20039;-82
2023/12/05 03:23:48;;;;;;;17.05;10.45;;;;;;;;;;4991348;28;20105;-79
2023/12/05 03:26:18;;;;;;;24.25;13.88;;;;;;;;;;4993000;28;20050;-80
2023/12/05 03:28:44;;;;;;;10.38;8.18;;;;;;;;;;4994948;28;20074;-81
2023/12/05 03:31:10;;;;;;;19.90;10.80;;;;;;;;;;4993236;28;20029;-82
2023/12/05 03:33:37;;;;;;;15.48;8.02;;;;;;;;;;4983106;28;20039;-81
2023/12/05 03:36:04;;;;;;;20.65;12.77;;;;;;;;;;4962592;28;20158;-80
2023/12/05 03:38:30;;;;;;;17.33;11.25;;;;;;;;;;4982301;28;20518;-80
2023/12/05 03:40:56;;;;;;;19.10;11.15;;;;;;;;;;4983733;28;20042;-80
2023/12/05 03:43:22;;;;;;;20.00;12.00;;;;;;;;;;4981269;28;20057;-79
2023/12/05 03:45:48;;;;;;;17.27;8.80;;;;;;;;;;4979160;28;20030;-78
2023/12/05 03:48:14;;;;;;;10.27;6.97;;;;;;;;;;4972259;28;20118;-80
2023/12/05 03:50:40;;;;;;;21.13;10.93;;;;;;;;;;4989211;28;20086;-79
2023/12/05 03:53:07;;;;;;;12.90;6.70;;;;;;;;;;4966178;28;20062;-78
2023/12/05 03:55:33;;;;;;;17.98;10.07;;;;;;;;;;4984715;28;20035;-79
2023/12/05 03:57:59;;;;;;;8.05;5.63;;;;;;;;;;4994581;28;20242;-80
2023/12/05 04:00:25;;;;;;;11.23;5.95;;;;;;;;;;4979387;28;20121;-78
2023/12/05 04:02:51;;;;;;;8.95;7.03;;;;;;;;;;4959222;28;20042;-80
2023/12/05 04:05:17;;;;;;;12.18;8.75;;;;;;;;;;4944239;28;20620;-78
2023/12/05 04:07:44;;;;;;;19.90;8.10;;;;;;;;;;4973866;28;20128;-79
2023/12/05 04:10:10;;;;;;;20.42;11.75;;;;;;;;;;4949985;28;20390;-78
2023/12/05 04:12:37;;;;;;;20.73;10.18;;;;;;;;;;4990180;28;20031;-77
2023/12/05 04:15:04;;;;;;;10.52;7.18;;;;;;;;;;4987060;28;20057;-78
2023/12/05 04:17:30;;;;;;;13.23;9.07;;;;;;;;;;4977742;28;20074;-80
2023/12/05 04:19:56;;;;;;;14.75;9.55;;;;;;;;;;4977422;28;20042;-79
2023/12/05 04:22:23;;;;;;;5.15;4.53;;;;;;;;;;4974794;28;20055;-80
2023/12/05 04:24:49;;;;;;;6.57;4.70;;;;;;;;;;4957758;28;20046;-79
2023/12/05 04:27:15;;;;;;;12.30;6.63;;;;;;;;;;4964115;28;20078;-80
2023/12/05 04:29:42;;;;;;;9.75;6.68;;;;;;;;;;4995214;28;20022;-82
2023/12/05 04:32:08;;;;;;;19.27;9.30;;;;;;;;;;4985023;28;20051;-78
2023/12/05 04:34:34;;;;;;;26.52;11.18;;;;;;;;;;4956149;29;20043;-79
2023/12/05 04:37:00;;;;;;;23.40;13.20;;;;;;;;;;4937802;28;20042;-79
2023/12/05 04:39:26;;;;;;;14.40;9.00;;;;;;;;;;4973152;28;20309;-77
2023/12/05 04:41:52;;;;;;;18.77;10.45;;;;;;;;;;4940677;28;20489;-79
2023/12/05 04:44:18;;;;;;;12.98;9.02;;;;;;;;;;4971431;28;20038;-77
2023/12/05 04:46:44;;;;;;;14.63;7.57;;;;;;;;;;4971369;28;20038;-77
2023/12/05 04:49:11;;;;;;;15.50;8.20;;;;;;;;;;4953523;28;20046;-76
2023/12/05 04:51:37;;;;;;;15.02;9.45;;;;;;;;;;4972770;28;20133;-77
2023/12/05 04:54:03;;;;;;;17.15;10.73;;;;;;;;;;4958251;28;20043;-78
2023/12/05 04:56:29;;;;;;;28.60;12.98;;;;;;;;;;4964161;28;20369;-77
2023/12/05 04:58:55;;;;;;;20.85;10.80;;;;;;;;;;4974268;28;20050;-78
2023/12/05 05:01:21;;;;;;;21.55;11.32;;;;;;;;;;4957003;28;20066;-78
2023/12/05 05:03:47;;;;;;;20.80;12.73;;;;;;;;;;4971539;28;20081;-77
2023/12/05 05:06:13;;;;;;;23.45;11.73;;;;;;;;;;4974412;28;20046;-77
2023/12/05 05:08:39;;;;;;;17.23;11.23;;;;;;;;;;4942048;28;20045;-78
2023/12/05 05:11:06;;;;;;;13.52;9.77;;;;;;;;;;4958592;28;20050;-77
2023/12/05 05:13:32;;;;;;;25.83;13.98;;;;;;;;;;4976460;28;20050;-77
2023/12/05 05:15:58;;;;;;;25.35;11.50;;;;;;;;;;4947539;28;20035;-78
2023/12/05 05:18:24;;;;;;;29.17;14.10;;;;;;;;;;4943231;28;20043;-78
2023/12/05 05:20:50;;;;;;;26.48;13.13;;;;;;;;;;4942621;28;20039;-77
2023/12/05 05:23:16;;;;;;;11.65;9.00;;;;;;;;;;4975568;28;20042;-78
2023/12/05 05:25:42;;;;;;;5.68;4.85;;;;;;;;;;4958399;28;20069;-77
2023/12/05 05:28:09;;;;;;;12.35;8.80;;;;;;;;;;4978033;28;20544;-77
2023/12/05 05:30:35;;;;;;;23.20;11.32;;;;;;;;;;4941821;28;20045;-77
2023/12/05 05:33:01;;;;;;;16.90;11.45;;;;;;;;;;4975381;28;20051;-79
2023/12/05 05:35:27;;;;;;;19.48;8.18;;;;;;;;;;4975079;28;20086;-77
2023/12/05 05:37:53;;;;;;;7.03;6.03;;;;;;;;;;4941186;28;20528;-78
2023/12/05 05:40:19;;;;;;;23.33;13.30;;;;;;;;;;4976432;28;20109;-76
2023/12/05 05:42:45;;;;;;;23.50;10.30;;;;;;;;;;4976114;28;20133;-77
2023/12/05 05:45:11;;;;;;;14.93;8.40;;;;;;;;;;4960875;28;20074;-79
2023/12/05 05:47:37;;;;;;;17.90;11.10;;;;;;;;;;4983265;28;20425;-80
2023/12/05 05:50:04;;;;;;;27.25;10.75;;;;;;;;;;4982850;28;20045;-79
2023/12/05 05:52:30;;;;;;;19.65;12.82;;;;;;;;;;4982704;28;20038;-79
2023/12/05 05:54:57;;;;;;;11.73;7.40;;;;;;;;;;4947823;28;20102;-79
2023/12/05 05:57:23;;;;;;;24.38;13.50;;;;;;;;;;4983251;28;20042;-80
2023/12/05 05:59:49;;;;;;;33.10;14.23;;;;;;;;;;4953671;28;20126;-78
2023/12/05 06:02:15;;;;;;;7.55;6.07;;;;;;;;;;4986830;28;20753;-79
2023/12/05 06:04:41;;;;;;;17.35;9.05;;;;;;;;;;4955681;28;20049;-79
2023/12/05 06:07:07;;;;;;;24.08;14.93;;;;;;;;;;4973234;28;20703;-75
2023/12/05 06:09:33;;;;;;;16.48;10.88;;;;;;;;;;4972723;28;20031;-76
2023/12/05 06:11:59;;;;;;;34.47;16.73;;;;;;;;;;4955379;28;20067;-77
2023/12/05 06:14:25;;;;;;;10.77;8.20;;;;;;;;;;4974074;28;20069;-78
2023/12/05 06:16:51;;;;;;;8.23;6.57;;;;;;;;;;4972613;28;20476;-78
2023/12/05 06:19:17;;;;;;;13.18;7.53;;;;;;;;;;4974079;28;20035;-76
2023/12/05 06:21:43;;;;;;;30.98;12.80;;;;;;;;;;4958428;28;20050;-77
2023/12/05 06:24:10;;;;;;;17.95;9.27;;;;;;;;;;4943470;28;20031;-79
2023/12/05 06:26:36;;;;;;;17.45;9.10;;;;;;;;;;4975926;28;20097;-78
2023/12/05 06:29:06;;;;;;;13.70;6.50;;;;;;;;;;4975886;28;20038;-75
2023/12/05 06:31:32;;;;;;;21.23;11.23;;;;;;;;;;4973140;28;20109;-76
2023/12/05 06:33:58;;;;;;;15.02;8.18;;;;;;;;;;4972094;28;20097;-76
2023/12/05 06:36:24;;;;;;;12.00;6.90;;;;;;;;;;4972263;28;20043;-77
2023/12/05 06:38:50;;;;;;;13.20;9.27;;;;;;;;;;4960078;28;20505;-76
2023/12/05 06:41:16;;;;;;;14.13;10.30;;;;;;;;;;4956700;28;20046;-78
2023/12/05 06:43:42;;;;;;;13.00;10.10;;;;;;;;;;4972394;28;20098;-76
2023/12/05 06:46:08;;;;;;;4.55;3.20;;;;;;;;;;4956595;28;20125;-77
2023/12/05 06:48:34;;;;;;;10.85;9.15;;;;;;;;;;4971216;28;20125;-79
2023/12/05 06:51:00;;;;;;;19.30;11.13;;;;;;;;;;4972369;28;20047;-79
2023/12/05 06:53:26;;;;;;;23.55;12.60;;;;;;;;;;4974628;28;20054;-79
2023/12/05 06:55:51;;;;;;;8.65;6.80;;;;;;;;;;4973995;28;20039;-78
2023/12/05 06:58:18;;;;;;;15.32;9.57;;;;;;;;;;4970935;28;20047;-77
2023/12/05 07:00:44;;;;;;;25.10;13.85;;;;;;;;;;4955693;28;20042;-75
2023/12/05 07:03:12;;;;;;;7.05;6.38;;;;;;;;;;4977486;28;20102;-76
2023/12/05 07:05:37;;;;;;;27.98;16.40;;;;;;;;;;4961954;28;20050;-76
2023/12/05 07:08:06;;;;;;;29.35;15.90;;;;;;;;;;4972301;28;20129;-76
2023/12/05 07:10:32;;;;;;;11.93;7.43;;;;;;;;;;4956761;28;20043;-77
2023/12/05 07:12:58;;;;;;;32.72;15.80;;;;;;;;;;4956094;28;20073;-76
2023/12/05 07:15:24;;;;;;;18.30;10.82;;;;;;;;;;4972745;28;20050;-75
2023/12/05 07:17:50;;;;;;;17.55;11.65;;;;;;;;;;4972744;28;20050;-75
2023/12/05 07:20:16;;;;;;;20.63;14.05;;;;;;;;;;4939307;28;20535;-75
2023/12/05 07:22:42;;;;;;;8.88;6.65;;;;;;;;;;4952745;28;20035;-75
2023/12/05 07:25:08;;;;;;;23.33;12.60;;;;;;;;;;4971597;28;20051;-76
2023/12/05 07:27:35;;;;;;;14.65;10.07;;;;;;;;;;4972399;28;20521;-75
2023/12/05 07:30:02;;;;;;;10.60;7.75;;;;;;;;;;4971431;28;20050;-76
2023/12/05 07:32:30;;;;;;;32.33;15.98;;;;;;;;;;4972747;28;20050;-75
2023/12/05 07:34:57;;;;;;;13.30;9.63;;;;;;;;;;4953889;28;20102;-75
2023/12/05 07:37:23;;;;;;;15.02;9.13;;;;;;;;;;4972168;28;20049;-75
2023/12/05 07:39:49;;;;;;;22.42;13.02;;;;;;;;;;4970168;28;20039;-74
2023/12/05 07:42:15;;;;;;;13.38;7.55;;;;;;;;;;4964447;28;20043;-78
2023/12/05 07:44:42;;;;;;;21.90;12.07;;;;;;;;;;4962718;28;20078;-77
2023/12/05 07:47:08;;;;;;;21.80;12.77;;;;;;;;;;4946463;29;20644;-75
2023/12/05 07:49:42;;;;;;;24.40;12.02;;;;;;;;;;5160395;27;20168;-76
2023/12/05 07:52:08;;;;;;;17.90;9.57;;;;;;;;;;5117836;27;20040;-76
2023/12/05 07:54:34;;;;;;;15.00;10.68;;;;;;;;;;5155737;27;20768;-75
2023/12/05 07:57:00;;;;;;;12.52;8.48;;;;;;;;;;5136157;27;20035;-75
2023/12/05 07:59:26;;;;;;;31.52;18.08;;;;;;;;;;5155592;27;20063;-75
2023/12/05 08:01:52;;;;;;;23.60;13.07;;;;;;;;;;5154508;27;20022;-76
2023/12/05 08:04:18;;;;;;;35.80;16.08;;;;;;;;;;5158776;27;20034;-76
2023/12/05 08:06:45;;;;;;;8.50;5.78;;;;;;;;;;5137205;27;20493;-76
2023/12/05 08:09:11;;;;;;;25.50;13.43;;;;;;;;;;5153894;27;20728;-74
2023/12/05 08:11:38;;;;;;;16.65;11.40;;;;;;;;;;5152267;27;20058;-76
2023/12/05 08:14:04;;;;;;;22.42;13.50;;;;;;;;;;5158086;27;20034;-77
2023/12/05 08:16:30;;;;;;;20.40;11.80;;;;;;;;;;5137564;27;20038;-76
2023/12/05 08:18:56;;;;;;;27.75;14.07;;;;;;;;;;5140944;27;20034;-76
2023/12/05 08:21:22;;;;;;;10.88;7.18;;;;;;;;;;5159312;27;20042;-76
2023/12/05 08:23:48;;;;;;;34.97;16.13;;;;;;;;;;5177461;27;20041;-76
2023/12/05 08:26:14;;;;;;;26.25;14.88;;;;;;;;;;5160683;27;20030;-77
2023/12/05 08:28:40;;;;;;;34.00;16.88;;;;;;;;;;5178055;27;20041;-77
2023/12/05 08:31:06;;;;;;;31.67;16.95;;;;;;;;;;5159238;27;20503;-74
2023/12/05 08:33:32;;;;;;;21.77;14.43;;;;;;;;;;5180694;27;20666;-77
2023/12/05 08:35:58;;;;;;;23.42;13.70;;;;;;;;;;5179365;27;20038;-77
2023/12/05 08:38:24;;;;;;;17.58;11.38;;;;;;;;;;5178488;27;20030;-78
2023/12/05 08:40:51;;;;;;;24.88;14.07;;;;;;;;;;5141625;27;20037;-77
2023/12/05 08:43:17;;;;;;;24.95;13.93;;;;;;;;;;5156087;27;20035;-76
2023/12/05 08:45:43;;;;;;;27.77;15.75;;;;;;;;;;5178779;27;20702;-77
2023/12/05 08:48:09;;;;;;;21.63;13.40;;;;;;;;;;5178659;27;20073;-77
2023/12/05 08:50:36;;;;;;;27.13;14.45;;;;;;;;;;5176794;27;20027;-77
2023/12/05 08:53:02;;;;;;;32.58;17.00;;;;;;;;;;5178283;27;20220;-77
2023/12/05 08:55:29;;;;;;;38.10;18.13;;;;;;;;;;5179282;27;20022;-77
2023/12/05 08:57:55;;;;;;;25.40;13.50;;;;;;;;;;5176790;27;20026;-77
2023/12/05 09:00:21;;;;;;;11.00;7.95;;;;;;;;;;5168423;27;20033;-77
2023/12/05 09:02:47;;;;;;;13.85;8.10;;;;;;;;;;5159334;27;20039;-76
2023/12/05 09:05:13;;;;;;;9.90;6.38;;;;;;;;;;5154336;27;20035;-76
2023/12/05 09:07:39;;;;;;;13.10;9.95;;;;;;;;;;5118793;27;20042;-77
2023/12/05 09:10:06;;;;;;;5.97;4.80;;;;;;;;;;5154023;27;20033;-77
2023/12/05 09:12:32;;;;;;;13.00;9.52;;;;;;;;;;5154128;27;20502;-76
2023/12/05 09:14:58;;;;;;;14.55;10.48;;;;;;;;;;5154184;27;20038;-76
2023/12/05 09:17:24;;;;;;;21.08;11.32;;;;;;;;;;5154110;27;20038;-76
2023/12/05 09:19:51;;;;;;;17.02;10.40;;;;;;;;;;5154195;27;20087;-77
2023/12/05 09:22:17;;;;;;;19.45;9.50;;;;;;;;;;5153943;27;20062;-76
2023/12/05 09:24:43;;;;;;;19.85;10.35;;;;;;;;;;5154202;27;20041;-77
2023/12/05 09:27:09;;;;;;;15.63;8.35;;;;;;;;;;5153585;27;20113;-76
2023/12/05 09:29:35;;;;;;;23.65;11.05;;;;;;;;;;5153088;27;20078;-76
2023/12/05 09:32:01;;;;;;;16.80;9.55;;;;;;;;;;5152425;27;20174;-77
2023/12/05 09:34:28;;;;;;;11.27;8.07;;;;;;;;;;5135478;27;20408;-76
2023/12/05 09:36:54;;;;;;;7.28;6.50;;;;;;;;;;5152482;27;20492;-77
2023/12/05 09:39:20;;;;;;;6.78;5.55;;;;;;;;;;5154007;27;20087;-77
2023/12/05 09:41:47;;;;;;;5.60;5.18;;;;;;;;;;5154231;27;20031;-77
2023/12/05 09:44:13;;;;;;;11.15;8.63;;;;;;;;;;5153613;27;20038;-76
2023/12/05 09:46:39;;;;;;;5.60;4.78;;;;;;;;;;5153879;27;20026;-76
2023/12/05 09:49:05;;;;;;;12.07;8.27;;;;;;;;;;5140989;27;20051;-77
2023/12/05 09:51:32;;;;;;;15.25;9.45;;;;;;;;;;5135428;27;20026;-77
2023/12/05 09:53:58;;;;;;;11.98;7.65;;;;;;;;;;5156391;27;20086;-77
2023/12/05 09:56:24;;;;;;;8.75;5.97;;;;;;;;;;5160970;27;20053;-74
2023/12/05 09:58:50;;;;;;;13.80;10.00;;;;;;;;;;5157252;27;20043;-77
2023/12/05 10:01:16;;;;;;;4.88;4.45;;;;;;;;;;5136528;27;20700;-76
2023/12/05 10:03:43;;;;;;;8.77;6.15;;;;;;;;;;5136931;27;20174;-77
2023/12/05 10:06:09;;;;;;;12.68;8.48;;;;;;;;;;5136066;27;20026;-76
2023/12/05 10:08:35;;;;;;;8.70;6.78;;;;;;;;;;5153452;27;20034;-77
2023/12/05 10:11:01;;;;;;;9.48;8.13;;;;;;;;;;5116755;27;20148;-77
2023/12/05 10:13:27;;;;;;;10.02;6.60;;;;;;;;;;5153256;27;20057;-77
2023/12/05 10:15:53;;;;;;;9.32;7.28;;;;;;;;;;5116711;27;20046;-75
2023/12/05 10:18:19;;;;;;;15.00;8.52;;;;;;;;;;5176364;27;20015;-86
2023/12/05 10:20:46;;;;;;;10.95;8.52;;;;;;;;;;5287686;22;20081;-85
2023/12/05 10:23:12;;;;;;;10.38;7.28;;;;;;;;;;5415325;22;20051;-84
2023/12/05 10:25:40;;;;;;;9.00;6.32;;;;;;;;;;5116815;28;20036;-84
2023/12/05 10:28:07;;;;;;;17.58;10.20;;;;;;;;;;5330081;22;20042;-82
2023/12/05 10:30:45;;;;;;;17.85;8.52;;;;;;;;;;5424274;22;20056;31
2023/12/05 10:36:08;;;;;;;13.38;8.18;;;;;;;;;;5534151;23;21205;-84
2023/12/05 10:38:36;;;;;;;12.50;6.97;;;;;;;;;;5521687;23;20040;-80
2023/12/05 10:46:48;;;;;;;5.32;4.68;;;;;;;;;;5279460;23;20057;-74
2023/12/05 10:49:14;;;;;;;9.65;7.90;;;;;;;;;;5395503;23;20168;-77
2023/12/05 10:51:41;;;;;;;9.55;7.15;;;;;;;;;;5471298;23;20038;-86
2023/12/05 10:54:15;;;;;;;5.53;5.00;;;;;;;;;;5187464;23;20028;31
2023/12/05 11:11:30;;;;;;;14.57;8.65;;;;;;;;;;5573757;23;20041;-84
2023/12/05 11:13:59;;;;;;;3.95;3.22;;;;;;;;;;5399859;23;21768;31
2023/12/05 11:16:29;;;;;;;6.25;5.78;;;;;;;;;;5416049;23;19926;-76
2023/12/05 11:22:23;;;;;;;4.70;1.92;;;;;;;;;;5224704;23;21122;-82
2023/12/05 11:24:59;;;;;;;5.68;5.15;;;;;;;;;;5347961;23;20130;-81
2023/12/05 11:33:29;;;;;;;8.18;5.82;;;;;;;;;;5616920;23;20047;-86
2023/12/05 11:36:12;;;;;;;11.30;7.28;;;;;;;;;;4961806;28;20026;-86
2023/12/05 11:38:38;;;;;;;13.43;8.18;;;;;;;;;;5383819;23;20027;-80
2023/12/05 11:41:14;;;;;;;5.75;5.25;;;;;;;;;;5095839;23;20050;-85
2023/12/05 11:43:42;;;;;;;10.20;7.57;;;;;;;;;;5202445;23;20060;-85
2023/12/05 11:49:05;;;;;;;6.70;6.03;;;;;;;;;;5307999;23;21028;-83
2023/12/05 11:51:31;;;;;;;4.75;4.38;;;;;;;;;;5385143;23;20055;-79
2023/12/05 11:54:02;;;;;;;6.30;5.70;;;;;;;;;;5308906;23;20063;-85
2023/12/05 11:56:28;;;;;;;10.07;6.60;;;;;;;;;;4962238;28;20058;-83
2023/12/05 11:58:57;;;;;;;11.93;8.07;;;;;;;;;;5231476;23;20024;-82
2023/12/05 12:01:23;;;;;;;4.13;3.58;;;;;;;;;;4960556;28;20059;-84
2023/12/05 12:03:50;;;;;;;7.43;6.63;;;;;;;;;;5319280;23;20070;-80
2023/12/05 12:06:17;;;;;;;11.70;7.03;;;;;;;;;;5405879;23;20043;-81
2023/12/05 12:11:33;;;;;;;8.52;4.97;;;;;;;;;;5597030;23;20035;-80
2023/12/05 12:14:01;;;;;;;8.60;5.43;;;;;;;;;;5681277;23;20299;-82
2023/12/05 12:16:27;;;;;;;4.78;3.90;;;;;;;;;;5088632;23;20098;-82
2023/12/05 12:18:53;;;;;;;4.97;4.57;;;;;;;;;;4978700;28;20027;-85
2023/12/05 12:21:20;;;;;;;14.00;9.30;;;;;;;;;;4961686;28;20044;-85
2023/12/05 12:23:46;;;;;;;9.75;7.63;;;;;;;;;;4961470;28;20048;-84
2023/12/05 12:26:12;;;;;;;3.47;3.28;;;;;;;;;;4977853;28;20058;-83
2023/12/05 12:28:38;;;;;;;6.75;5.90;;;;;;;;;;4940528;29;20055;-84
2023/12/05 12:31:04;;;;;;;6.80;5.70;;;;;;;;;;4972044;28;20106;-83
2023/12/05 12:33:37;;;;;;;12.20;8.50;;;;;;;;;;5201221;23;20059;-80
2023/12/05 12:36:03;;;;;;;13.40;8.55;;;;;;;;;;5393107;23;20050;-83
2023/12/05 12:38:31;;;;;;;14.95;8.88;;;;;;;;;;5004408;23;20045;-82
2023/12/05 12:40:57;;;;;;;13.32;8.45;;;;;;;;;;5621493;23;20250;-75
2023/12/05 12:43:24;;;;;;;8.32;7.47;;;;;;;;;;5279175;23;20047;-84
2023/12/05 12:46:15;;;;;;;10.63;6.82;;;;;;;;;;5123054;23;20039;31
2023/12/05 12:48:42;;;;;;;4.50;4.10;;;;;;;;;;5483107;23;20111;-81
2023/12/05 12:51:08;;;;;;;6.60;5.35;;;;;;;;;;5298930;23;20046;-81
2023/12/05 12:53:35;;;;;;;11.90;8.90;;;;;;;;;;5047751;23;20135;-84
2023/12/05 12:58:58;;;;;;;12.45;7.03;;;;;;;;;;5008872;23;20081;-83
2023/12/05 13:01:40;;;;;;;4.95;4.43;;;;;;;;;;5684165;23;20204;31
2023/12/05 13:04:08;;;;;;;3.33;3.17;;;;;;;;;;5241057;23;20031;-85
2023/12/05 13:06:36;;;;;;;11.70;8.00;;;;;;;;;;4981585;28;20016;-84
2023/12/05 13:09:10;;;;;;;13.57;8.57;;;;;;;;;;5412076;23;20037;-75
2023/12/05 13:11:37;;;;;;;7.57;6.82;;;;;;;;;;5063066;23;20021;-77
2023/12/05 13:14:20;;;;;;;12.07;8.65;;;;;;;;;;5394077;23;20337;-74
2023/12/05 13:16:47;;;;;;;8.18;6.40;;;;;;;;;;4944031;28;20023;-83
2023/12/05 13:19:35;;;;;;;4.32;3.97;;;;;;;;;;4961660;28;20027;-83
2023/12/05 13:22:02;;;;;;;11.93;8.18;;;;;;;;;;4961807;28;20039;-84
2023/12/05 13:27:11;;;;;;;11.05;8.50;;;;;;;;;;5124404;23;20055;-74
2023/12/05 13:29:37;;;;;;;18.30;11.65;;;;;;;;;;5154542;23;20047;-83
2023/12/05 13:32:04;;;;;;;13.48;8.85;;;;;;;;;;4980964;28;20030;-85
2023/12/05 13:34:30;;;;;;;11.48;6.15;;;;;;;;;;4980924;28;20023;-82
2023/12/05 13:36:56;;;;;;;9.80;6.13;;;;;;;;;;5124738;23;20040;-85
2023/12/05 13:39:23;;;;;;;14.52;8.90;;;;;;;;;;5120662;23;20198;-84
2023/12/05 13:41:49;;;;;;;12.07;8.38;;;;;;;;;;5420996;23;20070;-83
2023/12/05 13:44:16;;;;;;;12.65;9.35;;;;;;;;;;5232745;23;20070;-81
2023/12/05 13:46:42;;;;;;;10.30;8.43;;;;;;;;;;5610435;23;20025;-79
2023/12/05 13:49:08;;;;;;;15.63;8.23;;;;;;;;;;5286765;23;20050;-80
2023/12/05 13:51:39;;;;;;;14.48;9.38;;;;;;;;;;5304605;23;20035;31
2023/12/05 13:54:05;;;;;;;21.70;12.30;;;;;;;;;;4978541;28;20031;-85
2023/12/05 13:56:32;;;;;;;20.52;11.20;;;;;;;;;;5082586;23;20043;-73
2023/12/05 13:58:58;;;;;;;18.88;11.10;;;;;;;;;;4979924;28;20023;-85
2023/12/05 14:01:24;;;;;;;19.83;11.48;;;;;;;;;;4979644;29;20043;-85
2023/12/05 14:03:50;;;;;;;19.63;12.05;;;;;;;;;;4979495;29;20015;-82
2023/12/05 14:06:16;;;;;;;18.23;11.07;;;;;;;;;;4979934;28;20031;-84
2023/12/05 14:08:42;;;;;;;20.25;10.07;;;;;;;;;;4962645;29;20065;-85
2023/12/05 14:11:08;;;;;;;20.33;10.90;;;;;;;;;;4961762;29;20035;-81
2023/12/05 14:13:34;;;;;;;14.15;10.25;;;;;;;;;;4961517;29;20050;-84
2023/12/05 14:16:01;;;;;;;17.33;10.00;;;;;;;;;;4961120;29;20031;-84
2023/12/05 14:18:27;;;;;;;16.95;10.75;;;;;;;;;;4979674;29;20027;-85
2023/12/05 14:20:53;;;;;;;18.27;10.25;;;;;;;;;;4976932;29;20079;-85
2023/12/05 14:23:19;;;;;;;16.92;10.00;;;;;;;;;;4977108;28;20011;-85
2023/12/05 14:28:36;;;;;;;12.33;9.13;;;;;;;;;;4942200;29;20042;-83
2023/12/05 14:31:02;;;;;;;18.65;7.75;;;;;;;;;;5288930;23;20103;31
2023/12/05 14:33:29;;;;;;;26.02;11.65;;;;;;;;;;5129876;23;20051;-82
2023/12/05 14:38:51;;;;;;;8.52;5.78;;;;;;;;;;5207156;23;20054;-80
2023/12/05 14:41:18;;;;;;;14.07;7.97;;;;;;;;;;4979588;28;20027;-83
2023/12/05 14:43:44;;;;;;;14.63;6.65;;;;;;;;;;5186913;23;20059;-85
2023/12/05 14:46:10;;;;;;;18.55;10.45;;;;;;;;;;5052642;23;20059;-81
2023/12/05 14:48:37;;;;;;;12.88;9.27;;;;;;;;;;4978182;29;20140;-84
2023/12/05 14:51:03;;;;;;;19.05;9.57;;;;;;;;;;5045320;23;20090;-83
2023/12/05 14:53:29;;;;;;;20.25;12.07;;;;;;;;;;5131298;23;20068;-81
2023/12/05 14:55:55;;;;;;;24.40;13.50;;;;;;;;;;5093435;23;20051;-83
2023/12/05 14:58:21;;;;;;;13.00;7.65;;;;;;;;;;4961857;28;20058;-85
2023/12/05 15:00:48;;;;;;;22.08;11.75;;;;;;;;;;5044523;23;20017;-82
2023/12/05 15:03:14;;;;;;;23.75;14.15;;;;;;;;;;4945360;28;20022;-81
2023/12/05 15:05:40;;;;;;;15.70;8.77;;;;;;;;;;4978791;28;20079;-84
2023/12/05 15:08:06;;;;;;;22.08;13.00;;;;;;;;;;4978489;28;20071;-84
2023/12/05 15:10:33;;;;;;;16.92;8.93;;;;;;;;;;4961925;29;20015;-84
2023/12/05 15:12:59;;;;;;;31.75;14.52;;;;;;;;;;5124909;23;20039;-84
2023/12/05 15:15:25;;;;;;;32.67;16.88;;;;;;;;;;5000998;23;20043;-84